Blagovescensk, Russia
Current Conditions -  °F | °C
As of 5:00 AM on Monday 22 Dec 2014 (Local Time) from UHBB Reporting Station
Clear Clear  
Wind Chill: -37°   Ceiling: Unl
Heat Index: -24°   Visibility: 6mi
Dew Point: -26°   Wind: 4mph
Humidity: 91%   Direction: 300°WNW
Pressure: 29.83"   Gusts: NA
Location:  50.25°N, 127.57°E
Report Text: UHBB 212000Z 30002MPS CAVOK M31/M32 Q1010 NOSIG RMK QFE740/098736410250
Loading
Personal Weather Stations






























Interactive Weather Map New forecast layout! Learn more

10-Day Weather Forecast

Advertisements
Track Severe Weather on mobile